Airfield :
LOGIN :

Register | Disclaimer

   EN    FR    IT 

 










Legend :    VFR   Marginal VFR   IFR   Intensive IFR   Very Intensive IFR
Visi :
Ceiling :
>= 8 km
>= 3000ft
5 to 8 km
1000 to 3000 ft
1500m to 5 km
500 to 1000 ft
800 to 1500m
200 to 500 ft
< 800m
< 200 ft
Symbols :   Thunderstorms  Fog  Heavy snow  Heavy precipitations  Wind > 20 kt
SIGMETs :     Misc.  Thunderstorms  Icing  Turbulence  Mountain Waves  Volcanic Ashes







- Airport Elevation : 226 ft
- IATA code : BEX


EGUB - RAF Benson

CURRENT METAR :
  • 262350Z AUTO 04012KT 9999 // OVC011/// 13/11 Q1029

EXPIRED METARs :
  • 262320Z 04011KT 9999 OVC011 13/11 Q1029 NOSIG RMK GRN GRN
  • 262250Z 04011KT 9999 OVC011 13/11 Q1029 NOSIG RMK GRN GRN
  • 262220Z 03012KT 9999 OVC012 13/11 Q1029 NOSIG RMK GRN GRN
  • 262150Z 04012KT 9999 OVC011 14/12 Q1029 NOSIG RMK GRN GRN
  • 262120Z 03011KT 9999 OVC012 14/12 Q1029 NOSIG RMK GRN GRN

TAF TAF EGUB
Valid from the 27 at 00:00 until the 27 at 18:00 UTC


262217Z 2700/2718 03010KT 9999 BKN010
BECMG 2707/2709 FEW010
ATIS : +44 1491-837766 (x7524)
No reported NOTAMs for that airfield.
1 SIGMET reported for the London FIR (EGTT) :
 
Severe turbulence
EGTT SIGMET 01 VALID 270010/270400 EGRR
EGTT LONDON FIR SEV TURB FCST WI N5033 W00347 - N4950 W00345 - N4933 W00800 - N5028 W00800 - N5033 W00347 SFC/FL060 STNR WKN=



MET'MAP, your aeronautical weather chart ! - Copyright ORBIFLY December 2007 - Disclaimer

ORBIFLY MET'MAP TEAM :

Programming & Development : Alexandra Zaïnal
Concept & Development : Baudouin d'Aumeries
Co-Development & Prog : Marc-Olivier Méhu
Technical & hardware support : Manuel Goepfert

Contact : metmap@orbifly.com




SOURCES & CREDITS :

   NOAA